sensor_id;sensor_type;location;lat;lon;timestamp;pressure;altitude;pressure_sealevel;temperature;humidity
13952;BME280;39535;52.192;9.886;2023-01-27T00:02:05;101089.44;;;2.41;100.00
13952;BME280;39535;52.192;9.886;2023-01-27T00:04:32;101075.69;;;2.40;100.00
13952;BME280;39535;52.192;9.886;2023-01-27T00:06:58;101070.59;;;2.43;100.00
13952;BME280;39535;52.192;9.886;2023-01-27T00:09:25;101071.38;;;2.41;100.00
13952;BME280;39535;52.192;9.886;2023-01-27T00:11:51;101064.56;;;2.43;100.00
13952;BME280;39535;52.192;9.886;2023-01-27T00:14:35;101056.75;;;2.38;100.00
13952;BME280;39535;52.192;9.886;2023-01-27T00:17:02;101055.22;;;2.46;100.00
13952;BME280;39535;52.192;9.886;2023-01-27T00:19:29;101050.50;;;2.30;100.00
13952;BME280;39535;52.192;9.886;2023-01-27T00:21:55;101036.84;;;2.32;100.00
13952;BME280;39535;52.192;9.886;2023-01-27T00:24:39;101035.31;;;2.41;100.00
13952;BME280;39535;52.192;9.886;2023-01-27T00:27:08;101040.56;;;2.45;100.00
13952;BME280;39535;52.192;9.886;2023-01-27T00:29:34;101032.69;;;2.39;100.00
13952;BME280;39535;52.192;9.886;2023-01-27T00:32:03;101032.84;;;2.45;100.00
13952;BME280;39535;52.192;9.886;2023-01-27T00:34:47;101029.63;;;2.54;100.00
13952;BME280;39535;52.192;9.886;2023-01-27T00:37:13;101045.16;;;2.57;100.00
13952;BME280;39535;52.192;9.886;2023-01-27T00:39:40;101040.00;;;2.57;100.00
13952;BME280;39535;52.192;9.886;2023-01-27T00:42:07;101036.56;;;2.56;100.00
13952;BME280;39535;52.192;9.886;2023-01-27T00:44:33;101042.66;;;2.60;100.00
13952;BME280;39535;52.192;9.886;2023-01-27T00:46:59;101051.34;;;2.65;100.00
13952;BME280;39535;52.192;9.886;2023-01-27T00:49:27;101059.94;;;2.64;100.00
13952;BME280;39535;52.192;9.886;2023-01-27T00:51:53;101051.34;;;2.64;100.00
13952;BME280;39535;52.192;9.886;2023-01-27T00:54:20;101062.47;;;2.63;100.00
13952;BME280;39535;52.192;9.886;2023-01-27T00:56:46;101071.00;;;2.60;100.00
13952;BME280;39535;52.192;9.886;2023-01-27T00:59:13;101063.41;;;2.66;100.00
13952;BME280;39535;52.192;9.886;2023-01-27T01:01:39;101064.34;;;2.70;100.00
13952;BME280;39535;52.192;9.886;2023-01-27T01:04:06;101061.66;;;2.64;100.00
13952;BME280;39535;52.192;9.886;2023-01-27T01:06:33;101066.03;;;2.69;100.00
13952;BME280;39535;52.192;9.886;2023-01-27T01:09:00;101075.56;;;2.72;100.00
13952;BME280;39535;52.192;9.886;2023-01-27T01:11:26;101077.31;;;2.73;100.00
13952;BME280;39535;52.192;9.886;2023-01-27T01:13:52;101086.75;;;2.72;100.00
13952;BME280;39535;52.192;9.886;2023-01-27T01:16:21;101091.97;;;2.75;100.00
13952;BME280;39535;52.192;9.886;2023-01-27T01:18:47;101092.00;;;2.77;100.00
13952;BME280;39535;52.192;9.886;2023-01-27T01:21:14;101097.09;;;2.74;100.00
13952;BME280;39535;52.192;9.886;2023-01-27T01:23:43;101097.06;;;2.72;100.00
13952;BME280;39535;52.192;9.886;2023-01-27T01:26:11;101103.03;;;2.71;100.00
13952;BME280;39535;52.192;9.886;2023-01-27T01:28:38;101105.78;;;2.77;100.00
13952;BME280;39535;52.192;9.886;2023-01-27T01:31:05;101102.44;;;2.82;100.00
13952;BME280;39535;52.192;9.886;2023-01-27T01:33:32;101104.16;;;2.83;100.00
13952;BME280;39535;52.192;9.886;2023-01-27T01:36:03;101105.03;;;2.82;100.00
13952;BME280;39535;52.192;9.886;2023-01-27T01:38:29;101110.06;;;2.77;100.00
13952;BME280;39535;52.192;9.886;2023-01-27T01:40:57;101104.84;;;2.75;100.00
13952;BME280;39535;52.192;9.886;2023-01-27T01:43:24;101115.22;;;2.77;100.00
13952;BME280;39535;52.192;9.886;2023-01-27T01:45:53;101110.84;;;2.74;100.00
13952;BME280;39535;52.192;9.886;2023-01-27T01:48:27;101109.28;;;2.81;100.00
13952;BME280;39535;52.192;9.886;2023-01-27T01:50:58;101112.75;;;2.82;100.00
13952;BME280;39535;52.192;9.886;2023-01-27T01:53:28;101111.00;;;2.81;100.00
13952;BME280;39535;52.192;9.886;2023-01-27T01:56:02;101110.00;;;2.75;100.00
13952;BME280;39535;52.192;9.886;2023-01-27T01:58:32;101120.25;;;2.72;100.00
13952;BME280;39535;52.192;9.886;2023-01-27T02:01:00;101114.31;;;2.75;100.00
13952;BME280;39535;52.192;9.886;2023-01-27T02:03:27;101113.44;;;2.74;100.00
13952;BME280;39535;52.192;9.886;2023-01-27T02:05:54;101109.88;;;2.69;100.00
13952;BME280;39535;52.192;9.886;2023-01-27T02:08:24;101102.16;;;2.71;100.00
13952;BME280;39535;52.192;9.886;2023-01-27T02:10:52;101096.28;;;2.76;100.00
13952;BME280;39535;52.192;9.886;2023-01-27T02:13:21;101103.22;;;2.77;100.00
13952;BME280;39535;52.192;9.886;2023-01-27T02:15:49;101108.47;;;2.82;100.00
13952;BME280;39535;52.192;9.886;2023-01-27T02:18:17;101107.44;;;2.75;100.00
13952;BME280;39535;52.192;9.886;2023-01-27T02:20:45;101108.28;;;2.74;100.00
13952;BME280;39535;52.192;9.886;2023-01-27T02:23:23;101108.38;;;2.79;100.00
13952;BME280;39535;52.192;9.886;2023-01-27T02:25:56;101099.75;;;2.77;100.00
13952;BME280;39535;52.192;9.886;2023-01-27T02:28:26;101103.25;;;2.81;100.00
13952;BME280;39535;52.192;9.886;2023-01-27T02:30:52;101101.53;;;2.80;100.00
13952;BME280;39535;52.192;9.886;2023-01-27T02:33:19;101097.25;;;2.80;100.00
13952;BME280;39535;52.192;9.886;2023-01-27T02:35:50;101102.41;;;2.80;100.00
13952;BME280;39535;52.192;9.886;2023-01-27T02:38:23;101101.53;;;2.80;100.00
13952;BME280;39535;52.192;9.886;2023-01-27T02:40:55;101097.19;;;2.78;100.00
13952;BME280;39535;52.192;9.886;2023-01-27T02:43:22;101094.72;;;2.82;100.00
13952;BME280;39535;52.192;9.886;2023-01-27T02:45:49;101090.38;;;2.81;100.00
13952;BME280;39535;52.192;9.886;2023-01-27T02:48:15;101099.06;;;2.84;100.00
13952;BME280;39535;52.192;9.886;2023-01-27T02:50:41;101098.25;;;2.87;100.00
13952;BME280;39535;52.192;9.886;2023-01-27T02:53:08;101105.13;;;2.86;100.00
13952;BME280;39535;52.192;9.886;2023-01-27T02:55:34;101098.34;;;2.90;100.00
13952;BME280;39535;52.192;9.886;2023-01-27T02:58:02;101105.25;;;2.92;100.00
13952;BME280;39535;52.192;9.886;2023-01-27T03:00:28;101113.03;;;2.94;100.00
13952;BME280;39535;52.192;9.886;2023-01-27T03:02:55;101103.53;;;2.93;100.00
13952;BME280;39535;52.192;9.886;2023-01-27T03:05:22;101105.31;;;2.94;100.00
13952;BME280;39535;52.192;9.886;2023-01-27T03:07:48;101107.88;;;2.94;100.00
13952;BME280;39535;52.192;9.886;2023-01-27T03:10:14;101109.69;;;2.98;100.00
13952;BME280;39535;52.192;9.886;2023-01-27T03:12:42;101108.00;;;3.00;100.00
13952;BME280;39535;52.192;9.886;2023-01-27T03:15:10;101105.47;;;3.02;100.00
13952;BME280;39535;52.192;9.886;2023-01-27T03:18:02;101114.06;;;3.02;100.00
13952;BME280;39535;52.192;9.886;2023-01-27T03:20:35;101117.53;;;3.03;100.00
13952;BME280;39535;52.192;9.886;2023-01-27T03:23:02;101117.56;;;3.04;100.00
13952;BME280;39535;52.192;9.886;2023-01-27T03:25:28;101119.34;;;3.07;100.00
13952;BME280;39535;52.192;9.886;2023-01-27T03:27:55;101120.19;;;3.06;100.00
13952;BME280;39535;52.192;9.886;2023-01-27T03:30:23;101121.09;;;3.08;100.00
13952;BME280;39535;52.192;9.886;2023-01-27T03:32:49;101122.84;;;3.10;100.00
13952;BME280;39535;52.192;9.886;2023-01-27T03:35:16;101129.78;;;3.13;100.00
13952;BME280;39535;52.192;9.886;2023-01-27T03:37:43;101126.28;;;3.11;100.00
13952;BME280;39535;52.192;9.886;2023-01-27T03:40:27;101130.63;;;3.12;100.00
13952;BME280;39535;52.192;9.886;2023-01-27T03:43:11;101122.91;;;3.12;100.00
13952;BME280;39535;52.192;9.886;2023-01-27T03:45:56;101133.25;;;3.13;100.00
13952;BME280;39535;52.192;9.886;2023-01-27T03:48:41;101128.91;;;3.12;100.00
13952;BME280;39535;52.192;9.886;2023-01-27T03:51:08;101125.47;;;3.12;100.00
13952;BME280;39535;52.192;9.886;2023-01-27T03:53:36;101122.03;;;3.13;100.00
13952;BME280;39535;52.192;9.886;2023-01-27T03:56:02;101120.31;;;3.12;100.00
13952;BME280;39535;52.192;9.886;2023-01-27T03:58:32;101125.53;;;3.15;100.00
13952;BME280;39535;52.192;9.886;2023-01-27T04:01:02;101122.94;;;3.15;100.00
13952;BME280;39535;52.192;9.886;2023-01-27T04:03:31;101120.44;;;3.18;100.00
13952;BME280;39535;52.192;9.886;2023-01-27T04:06:17;101124.75;;;3.17;100.00
13952;BME280;39535;52.192;9.886;2023-01-27T04:09:02;101123.91;;;3.18;100.00
13952;BME280;39535;52.192;9.886;2023-01-27T04:11:29;101119.63;;;3.21;100.00
13952;BME280;39535;52.192;9.886;2023-01-27T04:14:13;101119.63;;;3.21;100.00
13952;BME280;39535;52.192;9.886;2023-01-27T04:16:41;101120.53;;;3.21;100.00
13952;BME280;39535;52.192;9.886;2023-01-27T04:19:09;101114.53;;;3.22;100.00
13952;BME280;39535;52.192;9.886;2023-01-27T04:21:36;101122.19;;;3.19;100.00
13952;BME280;39535;52.192;9.886;2023-01-27T04:24:04;101120.53;;;3.21;100.00
13952;BME280;39535;52.192;9.886;2023-01-27T04:26:32;101119.69;;;3.22;100.00
13952;BME280;39535;52.192;9.886;2023-01-27T04:28:59;101119.63;;;3.21;100.00
13952;BME280;39535;52.192;9.886;2023-01-27T04:31:26;101111.91;;;3.21;100.00
13952;BME280;39535;52.192;9.886;2023-01-27T04:33:53;101125.75;;;3.24;100.00
13952;BME280;39535;52.192;9.886;2023-01-27T04:36:20;101115.38;;;3.23;100.00
13952;BME280;39535;52.192;9.886;2023-01-27T04:38:46;101127.50;;;3.25;100.00
13952;BME280;39535;52.192;9.886;2023-01-27T04:41:12;101134.34;;;3.25;100.00
13952;BME280;39535;52.192;9.886;2023-01-27T04:43:39;101141.31;;;3.27;100.00
13952;BME280;39535;52.192;9.886;2023-01-27T04:46:05;101144.75;;;3.28;100.00
13952;BME280;39535;52.192;9.886;2023-01-27T04:48:32;101147.28;;;3.26;100.00
13952;BME280;39535;52.192;9.886;2023-01-27T04:50:59;101151.59;;;3.26;100.00
13952;BME280;39535;52.192;9.886;2023-01-27T04:53:26;101159.38;;;3.27;100.00
13952;BME280;39535;52.192;9.886;2023-01-27T04:56:00;101161.94;;;3.27;100.00
13952;BME280;39535;52.192;9.886;2023-01-27T04:58:27;101159.41;;;3.30;100.00
13952;BME280;39535;52.192;9.886;2023-01-27T05:00:53;101163.72;;;3.30;100.00
13952;BME280;39535;52.192;9.886;2023-01-27T05:03:19;101162.00;;;3.30;100.00
13952;BME280;39535;52.192;9.886;2023-01-27T05:05:46;101170.59;;;3.31;100.00
13952;BME280;39535;52.192;9.886;2023-01-27T05:08:13;101167.16;;;3.30;100.00
13952;BME280;39535;52.192;9.886;2023-01-27T05:10:42;101172.31;;;3.30;100.00
13952;BME280;39535;52.192;9.886;2023-01-27T05:13:08;101166.34;;;3.31;100.00
13952;BME280;39535;52.192;9.886;2023-01-27T05:15:34;101170.69;;;3.34;100.00
13952;BME280;39535;52.192;9.886;2023-01-27T05:18:00;101177.56;;;3.35;100.00
13952;BME280;39535;52.192;9.886;2023-01-27T05:20:27;101170.69;;;3.34;100.00
13952;BME280;39535;52.192;9.886;2023-01-27T05:22:55;101177.59;;;3.36;100.00
13952;BME280;39535;52.192;9.886;2023-01-27T05:25:43;101176.75;;;3.36;100.00
13952;BME280;39535;52.192;9.886;2023-01-27T05:28:10;101182.72;;;3.33;100.00
13952;BME280;39535;52.192;9.886;2023-01-27T05:30:36;101181.03;;;3.35;100.00
13952;BME280;39535;52.192;9.886;2023-01-27T05:33:03;101185.41;;;3.38;100.00
13952;BME280;39535;52.192;9.886;2023-01-27T05:35:31;101182.81;;;3.38;100.00
13952;BME280;39535;52.192;9.886;2023-01-27T05:37:58;101185.44;;;3.40;100.00
13952;BME280;39535;52.192;9.886;2023-01-27T05:40:24;101196.56;;;3.37;100.00
13952;BME280;39535;52.192;9.886;2023-01-27T05:42:52;101188.78;;;3.35;100.00
13952;BME280;39535;52.192;9.886;2023-01-27T05:45:19;101194.91;;;3.41;100.00
13952;BME280;39535;52.192;9.886;2023-01-27T05:47:47;101189.75;;;3.41;100.00
13952;BME280;39535;52.192;9.886;2023-01-27T05:50:14;101188.91;;;3.42;100.00
13952;BME280;39535;52.192;9.886;2023-01-27T05:52:41;101189.81;;;3.44;100.00
13952;BME280;39535;52.192;9.886;2023-01-27T05:55:07;101192.44;;;3.45;100.00
13952;BME280;39535;52.192;9.886;2023-01-27T05:57:33;101195.94;;;3.47;100.00
13952;BME280;39535;52.192;9.886;2023-01-27T06:00:01;101195.97;;;3.50;100.00
13952;BME280;39535;52.192;9.886;2023-01-27T06:02:27;101207.22;;;3.51;100.00
13952;BME280;39535;52.192;9.886;2023-01-27T06:04:54;101201.16;;;3.50;100.00
13952;BME280;39535;52.192;9.886;2023-01-27T06:07:20;101203.78;;;3.52;100.00
13952;BME280;39535;52.192;9.886;2023-01-27T06:09:46;101208.09;;;3.53;100.00
13952;BME280;39535;52.192;9.886;2023-01-27T06:12:13;101209.78;;;3.52;100.00
13952;BME280;39535;52.192;9.886;2023-01-27T06:14:39;101208.97;;;3.53;100.00
13952;BME280;39535;52.192;9.886;2023-01-27T06:17:07;101214.19;;;3.56;100.00
13952;BME280;39535;52.192;9.886;2023-01-27T06:19:33;101210.69;;;3.54;100.00
13952;BME280;39535;52.192;9.886;2023-01-27T06:21:59;101214.19;;;3.56;100.00
13952;BME280;39535;52.192;9.886;2023-01-27T06:24:27;101212.47;;;3.55;100.00
13952;BME280;39535;52.192;9.886;2023-01-27T06:26:54;101219.34;;;3.56;100.00
13952;BME280;39535;52.192;9.886;2023-01-27T06:29:20;101214.22;;;3.58;100.00
13952;BME280;39535;52.192;9.886;2023-01-27T06:31:47;101220.25;;;3.58;100.00
13952;BME280;39535;52.192;9.886;2023-01-27T06:34:14;101213.38;;;3.57;100.00
13952;BME280;39535;52.192;9.886;2023-01-27T06:36:41;101218.56;;;3.59;100.00
13952;BME280;39535;52.192;9.886;2023-01-27T06:39:07;101216.81;;;3.58;100.00
13952;BME280;39535;52.192;9.886;2023-01-27T06:41:33;101218.56;;;3.61;100.00
13952;BME280;39535;52.192;9.886;2023-01-27T06:44:00;101213.38;;;3.57;100.00
13952;BME280;39535;52.192;9.886;2023-01-27T06:46:26;101217.66;;;3.58;100.00
13952;BME280;39535;52.192;9.886;2023-01-27T06:48:52;101213.41;;;3.59;100.00
13952;BME280;39535;52.192;9.886;2023-01-27T06:51:20;101208.25;;;3.61;100.00
13952;BME280;39535;52.192;9.886;2023-01-27T06:53:46;101209.16;;;3.63;100.00
13952;BME280;39535;52.192;9.886;2023-01-27T06:56:13;101218.69;;;3.65;100.00
13952;BME280;39535;52.192;9.886;2023-01-27T06:58:39;101224.69;;;3.64;100.00
13952;BME280;39535;52.192;9.886;2023-01-27T07:01:06;101227.31;;;3.66;100.00
13952;BME280;39535;52.192;9.886;2023-01-27T07:03:33;101223.91;;;3.67;100.00
13952;BME280;39535;52.192;9.886;2023-01-27T07:05:59;101232.50;;;3.67;100.00
13952;BME280;39535;52.192;9.886;2023-01-27T07:08:27;101233.38;;;3.68;100.00
13952;BME280;39535;52.192;9.886;2023-01-27T07:10:53;101244.56;;;3.68;100.00
13952;BME280;39535;52.192;9.886;2023-01-27T07:13:19;101245.41;;;3.67;100.00
13952;BME280;39535;52.192;9.886;2023-01-27T07:15:46;101244.50;;;3.65;100.00
13952;BME280;39535;52.192;9.886;2023-01-27T07:18:12;101243.56;;;3.62;100.00
13952;BME280;39535;52.192;9.886;2023-01-27T07:20:39;101240.03;;;3.58;100.00
13952;BME280;39535;52.192;9.886;2023-01-27T07:23:06;101236.66;;;3.61;100.00
13952;BME280;39535;52.192;9.886;2023-01-27T07:25:33;101235.81;;;3.62;100.00
13952;BME280;39535;52.192;9.886;2023-01-27T07:28:01;101236.81;;;3.67;100.00
13952;BME280;39535;52.192;9.886;2023-01-27T07:30:28;101246.31;;;3.69;100.00
13952;BME280;39535;52.192;9.886;2023-01-27T07:32:54;101242.78;;;3.66;100.00
13952;BME280;39535;52.192;9.886;2023-01-27T07:35:21;101246.28;;;3.68;100.00
13952;BME280;39535;52.192;9.886;2023-01-27T07:37:47;101255.78;;;3.70;100.00
13952;BME280;39535;52.192;9.886;2023-01-27T07:40:14;101257.59;;;3.74;100.00
13952;BME280;39535;52.192;9.886;2023-01-27T07:42:42;101265.34;;;3.73;100.00
13952;BME280;39535;52.192;9.886;2023-01-27T07:45:08;101275.72;;;3.76;100.00
13952;BME280;39535;52.192;9.886;2023-01-27T07:47:35;101273.34;;;3.85;100.00
13952;BME280;39535;52.192;9.886;2023-01-27T07:50:01;101288.84;;;3.85;100.00
13952;BME280;39535;52.192;9.886;2023-01-27T07:52:27;101288.88;;;3.87;100.00
13952;BME280;39535;52.192;9.886;2023-01-27T07:54:54;101300.91;;;3.86;100.00
13952;BME280;39535;52.192;9.886;2023-01-27T07:57:20;101297.41;;;3.83;100.00
13952;BME280;39535;52.192;9.886;2023-01-27T07:59:48;101302.53;;;3.81;100.00
13952;BME280;39535;52.192;9.886;2023-01-27T08:02:17;101317.13;;;3.79;100.00
13952;BME280;39535;52.192;9.886;2023-01-27T08:04:47;101323.88;;;3.74;100.00
13952;BME280;39535;52.192;9.886;2023-01-27T08:07:13;101314.19;;;3.64;100.00
13952;BME280;39535;52.192;9.886;2023-01-27T08:09:39;101323.59;;;3.62;100.00
13952;BME280;39535;52.192;9.886;2023-01-27T08:12:06;101317.47;;;3.58;100.00
13952;BME280;39535;52.192;9.886;2023-01-27T08:14:32;101320.88;;;3.55;100.00
13952;BME280;39535;52.192;9.886;2023-01-27T08:17:00;101320.00;;;3.55;100.00
13952;BME280;39535;52.192;9.886;2023-01-27T08:19:26;101307.06;;;3.53;100.00
13952;BME280;39535;52.192;9.886;2023-01-27T08:21:52;101308.69;;;3.50;100.00
13952;BME280;39535;52.192;9.886;2023-01-27T08:24:19;101311.34;;;3.53;100.00
13952;BME280;39535;52.192;9.886;2023-01-27T08:26:45;101312.19;;;3.52;100.00
13952;BME280;39535;52.192;9.886;2023-01-27T08:29:11;101306.06;;;3.48;100.00
13952;BME280;39535;52.192;9.886;2023-01-27T08:31:38;101305.16;;;3.46;100.00
13952;BME280;39535;52.192;9.886;2023-01-27T08:34:07;101298.38;;;3.50;100.00
13952;BME280;39535;52.192;9.886;2023-01-27T08:36:33;101304.44;;;3.52;100.00
13952;BME280;39535;52.192;9.886;2023-01-27T08:38:59;101300.19;;;3.54;100.00
13952;BME280;39535;52.192;9.886;2023-01-27T08:41:26;101305.28;;;3.52;100.00
13952;BME280;39535;52.192;9.886;2023-01-27T08:43:53;101307.09;;;3.56;100.00
13952;BME280;39535;52.192;9.886;2023-01-27T08:46:20;101323.50;;;3.58;100.00
13952;BME280;39535;52.192;9.886;2023-01-27T08:48:46;101318.34;;;3.57;100.00
13952;BME280;39535;52.192;9.886;2023-01-27T08:51:15;101331.25;;;3.58;100.00
13952;BME280;39535;52.192;9.886;2023-01-27T08:53:42;101337.28;;;3.57;100.00
13952;BME280;39535;52.192;9.886;2023-01-27T08:56:12;101338.19;;;3.60;100.00
13952;BME280;39535;52.192;9.886;2023-01-27T08:58:39;101353.72;;;3.63;100.00
13952;BME280;39535;52.192;9.886;2023-01-27T09:01:06;101357.16;;;3.62;100.00
13952;BME280;39535;52.192;9.886;2023-01-27T09:03:33;101376.03;;;3.59;100.00
13952;BME280;39535;52.192;9.886;2023-01-27T09:06:00;101382.00;;;3.58;100.00
13952;BME280;39535;52.192;9.886;2023-01-27T09:08:28;101394.00;;;3.56;100.00
13952;BME280;39535;52.192;9.886;2023-01-27T09:10:55;101394.78;;;3.52;100.00
13952;BME280;39535;52.192;9.886;2023-01-27T09:13:22;101405.09;;;3.52;100.00
13952;BME280;39535;52.192;9.886;2023-01-27T09:15:50;101405.00;;;3.49;100.00
13952;BME280;39535;52.192;9.886;2023-01-27T09:18:17;101397.34;;;3.52;100.00
13952;BME280;39535;52.192;9.886;2023-01-27T09:20:43;101398.38;;;3.58;100.00
13952;BME280;39535;52.192;9.886;2023-01-27T09:23:10;101413.91;;;3.60;100.00
13952;BME280;39535;52.192;9.886;2023-01-27T09:25:38;101413.09;;;3.61;100.00
13952;BME280;39535;52.192;9.886;2023-01-27T09:28:04;101432.75;;;3.56;100.00
13952;BME280;39535;52.192;9.886;2023-01-27T09:30:30;101434.41;;;3.54;100.00
13952;BME280;39535;52.192;9.886;2023-01-27T09:32:57;101436.13;;;3.53;100.00
13952;BME280;39535;52.192;9.886;2023-01-27T09:35:25;101439.56;;;3.54;100.00
13952;BME280;39535;52.192;9.886;2023-01-27T09:37:57;101451.50;;;3.50;100.00
13952;BME280;39535;52.192;9.886;2023-01-27T09:40:29;101449.84;;;3.52;100.00
13952;BME280;39535;52.192;9.886;2023-01-27T09:43:12;101444.53;;;3.46;100.00
13952;BME280;39535;52.192;9.886;2023-01-27T09:45:54;101445.44;;;3.48;100.00
13952;BME280;39535;52.192;9.886;2023-01-27T09:48:52;101440.31;;;3.50;100.00
13952;BME280;39535;52.192;9.886;2023-01-27T09:51:30;101443.72;;;3.49;100.00
13952;BME280;39535;52.192;9.886;2023-01-27T09:54:12;101439.41;;;3.48;100.00
13952;BME280;39535;52.192;9.886;2023-01-27T09:56:51;101431.78;;;3.52;100.00
13952;BME280;39535;52.192;9.886;2023-01-27T09:59:35;101428.34;;;3.52;100.00
13952;BME280;39535;52.192;9.886;2023-01-27T10:02:13;101421.59;;;3.58;100.00
13952;BME280;39535;52.192;9.886;2023-01-27T10:04:57;101423.41;;;3.61;100.00
13952;BME280;39535;52.192;9.886;2023-01-27T10:07:54;101438.06;;;3.62;100.00
13952;BME280;39535;52.192;9.886;2023-01-27T10:10:30;101433.75;;;3.63;100.00
13952;BME280;39535;52.192;9.886;2023-01-27T10:13:08;101433.75;;;3.63;100.00
13952;BME280;39535;52.192;9.886;2023-01-27T10:15:53;101444.03;;;3.60;100.00
13952;BME280;39535;52.192;9.886;2023-01-27T10:18:34;101445.00;;;3.65;100.00
13952;BME280;39535;52.192;9.886;2023-01-27T10:21:10;101439.06;;;3.67;100.00
13952;BME280;39535;52.192;9.886;2023-01-27T10:23:50;101443.53;;;3.74;100.00
13952;BME280;39535;52.192;9.886;2023-01-27T10:26:22;101439.34;;;3.80;100.00
13952;BME280;39535;52.192;9.886;2023-01-27T10:29:05;101451.56;;;3.85;100.00
13952;BME280;39535;52.192;9.886;2023-01-27T10:31:36;101453.28;;;3.85;100.00
13952;BME280;39535;52.192;9.886;2023-01-27T10:34:13;101453.28;;;3.86;100.00
13952;BME280;39535;52.192;9.886;2023-01-27T10:36:46;101455.88;;;3.86;100.00
13952;BME280;39535;52.192;9.886;2023-01-27T10:39:20;101463.66;;;3.88;100.00
13952;BME280;39535;52.192;9.886;2023-01-27T10:41:54;101461.03;;;3.86;100.00
13952;BME280;39535;52.192;9.886;2023-01-27T10:44:33;101468.81;;;3.88;100.00
13952;BME280;39535;52.192;9.886;2023-01-27T10:47:10;101464.50;;;3.87;100.00
13952;BME280;39535;52.192;9.886;2023-01-27T10:49:43;101475.66;;;3.86;100.00
13952;BME280;39535;52.192;9.886;2023-01-27T10:52:15;101481.94;;;3.95;100.00
13952;BME280;39535;52.192;9.886;2023-01-27T10:54:46;101491.50;;;4.00;100.00
13952;BME280;39535;52.192;9.886;2023-01-27T10:57:20;101489.78;;;3.98;100.00
13952;BME280;39535;52.192;9.886;2023-01-27T10:59:56;101495.69;;;3.94;100.00
13952;BME280;39535;52.192;9.886;2023-01-27T11:02:32;101493.91;;;3.92;100.00
13952;BME280;39535;52.192;9.886;2023-01-27T11:05:02;101499.16;;;3.95;100.00
13952;BME280;39535;52.192;9.886;2023-01-27T11:07:38;101503.44;;;3.94;100.00
13952;BME280;39535;52.192;9.886;2023-01-27T11:10:15;101506.97;;;3.98;100.00
13952;BME280;39535;52.192;9.886;2023-01-27T11:12:44;101507.09;;;4.03;100.00
13952;BME280;39535;52.192;9.886;2023-01-27T11:15:16;101506.34;;;4.07;100.00
13952;BME280;39535;52.192;9.886;2023-01-27T11:17:49;101496.97;;;4.10;100.00
13952;BME280;39535;52.192;9.886;2023-01-27T11:20:26;101502.19;;;4.13;100.00
13952;BME280;39535;52.192;9.886;2023-01-27T11:22:57;101511.75;;;4.17;100.00
13952;BME280;39535;52.192;9.886;2023-01-27T11:25:31;101524.47;;;4.10;99.93
13952;BME280;39535;52.192;9.886;2023-01-27T11:28:06;101537.50;;;4.13;99.32
13952;BME280;39535;52.192;9.886;2023-01-27T11:30:40;101552.91;;;4.10;98.37
13952;BME280;39535;52.192;9.886;2023-01-27T11:33:16;101568.34;;;4.08;98.58
13952;BME280;39535;52.192;9.886;2023-01-27T11:35:44;101581.31;;;4.10;98.41
13952;BME280;39535;52.192;9.886;2023-01-27T11:38:13;101601.03;;;4.06;98.04
13952;BME280;39535;52.192;9.886;2023-01-27T11:40:43;101600.09;;;4.03;97.71
13952;BME280;39535;52.192;9.886;2023-01-27T11:43:13;101607.81;;;4.01;97.44
13952;BME280;39535;52.192;9.886;2023-01-27T11:45:41;101613.63;;;3.94;97.51
13952;BME280;39535;52.192;9.886;2023-01-27T11:48:14;101607.66;;;3.95;97.59
13952;BME280;39535;52.192;9.886;2023-01-27T11:50:43;101598.88;;;3.90;97.66
13952;BME280;39535;52.192;9.886;2023-01-27T11:53:13;101601.50;;;3.91;98.40
13952;BME280;39535;52.192;9.886;2023-01-27T11:55:45;101584.28;;;3.92;98.28
13952;BME280;39535;52.192;9.886;2023-01-27T11:58:18;101586.13;;;3.94;98.21
13952;BME280;39535;52.192;9.886;2023-01-27T12:00:49;101586.94;;;3.93;98.33
13952;BME280;39535;52.192;9.886;2023-01-27T12:03:25;101567.19;;;3.95;98.82
13952;BME280;39535;52.192;9.886;2023-01-27T12:05:56;101563.78;;;3.98;98.97
13952;BME280;39535;52.192;9.886;2023-01-27T12:08:39;101562.13;;;4.00;98.79
13952;BME280;39535;52.192;9.886;2023-01-27T12:11:17;101568.97;;;3.98;98.57
13952;BME280;39535;52.192;9.886;2023-01-27T12:13:51;101568.03;;;3.96;98.38
13952;BME280;39535;52.192;9.886;2023-01-27T12:16:18;101568.97;;;3.98;98.23
13952;BME280;39535;52.192;9.886;2023-01-27T12:18:51;101585.31;;;3.97;97.56
13952;BME280;39535;52.192;9.886;2023-01-27T12:21:19;101598.22;;;3.97;96.93
13952;BME280;39535;52.192;9.886;2023-01-27T12:23:48;101602.53;;;3.98;97.34
13952;BME280;39535;52.192;9.886;2023-01-27T12:26:29;101593.97;;;3.99;97.15
13952;BME280;39535;52.192;9.886;2023-01-27T12:28:58;101578.53;;;4.02;97.31
13952;BME280;39535;52.192;9.886;2023-01-27T12:31:29;101582.94;;;4.05;96.75
13952;BME280;39535;52.192;9.886;2023-01-27T12:34:00;101591.44;;;4.01;97.05
13952;BME280;39535;52.192;9.886;2023-01-27T12:36:27;101574.25;;;4.03;97.75
13952;BME280;39535;52.192;9.886;2023-01-27T12:38:55;101581.25;;;4.07;97.10
13952;BME280;39535;52.192;9.886;2023-01-27T12:41:26;101592.38;;;4.04;97.23
13952;BME280;39535;52.192;9.886;2023-01-27T12:43:55;101581.25;;;4.07;96.97
13952;BME280;39535;52.192;9.886;2023-01-27T12:46:23;101595.88;;;4.06;96.75
13952;BME280;39535;52.192;9.886;2023-01-27T12:48:51;101600.06;;;4.01;96.49
13952;BME280;39535;52.192;9.886;2023-01-27T12:51:21;101606.09;;;4.02;96.31
13952;BME280;39535;52.192;9.886;2023-01-27T12:53:48;101609.63;;;4.05;95.67
13952;BME280;39535;52.192;9.886;2023-01-27T12:56:17;101617.34;;;4.04;95.47
13952;BME280;39535;52.192;9.886;2023-01-27T12:58:45;101613.88;;;4.03;95.72
13952;BME280;39535;52.192;9.886;2023-01-27T13:01:24;101619.88;;;4.02;95.80
13952;BME280;39535;52.192;9.886;2023-01-27T13:03:54;101613.13;;;4.07;96.14